M I D A S
Marine Information and Data Acquisition System
Tripno 1760 of the Zeeleeuw from 2009-06-19 06:15:55 to 2009-06-19 16:13:22
Back to CruiseResearch ActivitiesStationsMapUnderway DataData graphs

EquipmentUnitsComment
TimeDGPSUTC
LatitudeDGPSDM.mWGS84
LongitudeDGPSDM.mWGS84
HeadingGyrodeg 
SOGDGPSknotsSpeed over ground
COGDGPSdegCourse over ground
DepthEcho soundermeters200 kHz
Missing or incorrect values are displayed as -999
Navigation data collected by the RV Zeeleeuw from 2009-06-19 06:19:04 to 2009-06-19 16:24:32
                                                                                    Next 1000 lines
Time Latitude Longitude Heading SOG COG Depth
2009-06-19 06:19:15 51°13.662 2°55.954 111.6 1.1 286 7
2009-06-19 06:19:19 51°13.663 2°55.952 111.5 1.6 290 7.1
2009-06-19 06:19:24 51°13.664 2°55.948 111.9 2 289 7.1
2009-06-19 06:19:29 51°13.665 2°55.943 112.6 2.5 292 -999
2009-06-19 06:19:36 51°13.667 2°55.935 113.6 2.9 294 -999
2009-06-19 06:19:41 51°13.669 2°55.928 114.7 3.2 295 -999
2009-06-19 06:19:47 51°13.671 2°55.92 115 3.5 296 -999
2009-06-19 06:19:52 51°13.674 2°55.913 115 3.5 296 -999
2009-06-19 06:19:58 51°13.676 2°55.905 114.5 3.4 295 -999
2009-06-19 06:20:03 51°13.678 2°55.898 113.1 3.4 293 -999
2009-06-19 06:20:08 51°13.68 2°55.891 111.8 3.3 292 -999
2009-06-19 06:20:13 51°13.681 2°55.885 110.4 3.3 290 -999
2009-06-19 06:20:18 51°13.683 2°55.878 109 3.3 290 -999
2009-06-19 06:20:23 51°13.684 2°55.871 107.9 3.3 288 -999
2009-06-19 06:20:28 51°13.686 2°55.864 106.9 3.2 288 -999
2009-06-19 06:20:33 51°13.687 2°55.857 105.6 3.2 285 -999
2009-06-19 06:20:38 51°13.688 2°55.85 104 3.2 285 -999
2009-06-19 06:20:43 51°13.689 2°55.844 102.1 3.1 282 -999
2009-06-19 06:20:48 51°13.69 2°55.837 100.1 3 280 -999
2009-06-19 06:20:53 51°13.69 2°55.83 98.1 3 277 -999
2009-06-19 06:20:58 51°13.691 2°55.824 96.1 3.1 275 -999
2009-06-19 06:21:03 51°13.691 2°55.817 94.3 3.1 274 -999
2009-06-19 06:21:08 51°13.691 2°55.81 92.7 3.2 273 -999
2009-06-19 06:21:13 51°13.691 2°55.803 91.2 3.1 272 -999
2009-06-19 06:21:18 51°13.691 2°55.796 90.1 3 271 -999
2009-06-19 06:21:23 51°13.691 2°55.79 89.1 2.9 270 -999
2009-06-19 06:21:28 51°13.691 2°55.783 88.2 2.9 269 -999
2009-06-19 06:21:33 51°13.69 2°55.777 87.4 2.7 269 -999
2009-06-19 06:21:38 51°13.69 2°55.771 86.8 2.6 268 -999
2009-06-19 06:21:43 51°13.69 2°55.766 86.2 2.5 268 -999
2009-06-19 06:21:48 51°13.69 2°55.761 85.6 2.4 267 -999
2009-06-19 06:21:53 51°13.69 2°55.756 84.8 2.3 269 -999
2009-06-19 06:21:58 51°13.69 2°55.751 84.3 1.9 270 -999
2009-06-19 06:22:03 51°13.69 2°55.749 83.4 0.7 271 13.4
2009-06-19 06:22:08 51°13.69 2°55.749 81.4 0.4 344 13.6
2009-06-19 06:22:12 51°13.691 2°55.75 78.2 1 50 13.6
2009-06-19 06:22:17 51°13.692 2°55.753 71.5 1.5 50 13.7
2009-06-19 06:22:22 51°13.694 2°55.755 62.9 1.6 41 13.7
2009-06-19 06:22:27 51°13.696 2°55.758 52.2 1.7 43 13.7
2009-06-19 06:22:32 51°13.698 2°55.76 46.8 1.7 36 14
2009-06-19 06:22:36 51°13.699 2°55.762 39.7 1.6 35 13.7
2009-06-19 06:22:41 51°13.701 2°55.764 35.9 1.4 33 13.8
2009-06-19 06:22:46 51°13.702 2°55.765 32 0.9 36 13.8
2009-06-19 06:22:51 51°13.703 2°55.765 29.4 0.4 38 13.9
2009-06-19 06:22:56 51°13.703 2°55.766 25.5 0.2 124 13.8
2009-06-19 06:23:00 51°13.702 2°55.766 23.5 0.6 186 13.8
2009-06-19 06:23:05 51°13.701 2°55.765 21.1 1 188 13.8
2009-06-19 06:23:10 51°13.699 2°55.765 19.1 1 191 13.8
2009-06-19 06:23:15 51°13.698 2°55.765 17.1 1 182 13.8
2009-06-19 06:23:20 51°13.697 2°55.764 16.1 0.9 187 6.5
2009-06-19 06:23:25 51°13.696 2°55.764 14.7 0.5 180 -999
2009-06-19 06:23:31 51°13.696 2°55.765 13.2 0.2 61 -999
2009-06-19 06:23:36 51°13.697 2°55.765 10 0.9 9 -999
2009-06-19 06:23:42 51°13.7 2°55.766 5.8 1.6 5 -999
2009-06-19 06:23:47 51°13.703 2°55.765 359.5 2.2 353 4.5
2009-06-19 06:23:52 51°13.706 2°55.764 353.3 2.5 348 14.2
2009-06-19 06:23:57 51°13.71 2°55.761 345.5 2.9 340 14.4
2009-06-19 06:24:01 51°13.713 2°55.759 339.7 3.4 336 14
2009-06-19 06:24:06 51°13.718 2°55.755 332.8 3.9 331 14
2009-06-19 06:24:11 51°13.723 2°55.75 329.5 4.5 329 13
2009-06-19 06:24:16 51°13.729 2°55.744 327.2 5 328 12.8
2009-06-19 06:24:20 51°13.734 2°55.739 326.3 5.5 326 12.9
2009-06-19 06:24:26 51°13.742 2°55.73 325.8 6 325 12.4
2009-06-19 06:24:30 51°13.748 2°55.723 325.6 6.4 325 11.2
2009-06-19 06:24:35 51°13.756 2°55.714 325.6 6.8 324 10.6
2009-06-19 06:24:40 51°13.764 2°55.705 325.5 7.1 325 10.5
2009-06-19 06:24:45 51°13.772 2°55.696 326.3 7.4 325 11
2009-06-19 06:24:49 51°13.779 2°55.689 326.7 7.6 326 10.6
2009-06-19 06:24:54 51°13.788 2°55.679 326.8 7.8 326 10.8
2009-06-19 06:24:59 51°13.797 2°55.669 328 8 328 11.1
2009-06-19 06:25:04 51°13.807 2°55.659 328.7 8.2 327 11.2
2009-06-19 06:25:09 51°13.817 2°55.649 328.7 8.4 328 11.4
2009-06-19 06:25:15 51°13.829 2°55.637 329.4 8.6 329 11.2
2009-06-19 06:25:19 51°13.837 2°55.63 331.2 8.8 330 11.3
2009-06-19 06:25:24 51°13.848 2°55.62 332 8.9 331 11.4
2009-06-19 06:25:30 51°13.861 2°55.609 332.8 9.1 332 11.7
2009-06-19 06:25:35 51°13.873 2°55.599 334.6 9.2 333 11.5
2009-06-19 06:25:39 51°13.882 2°55.592 335.5 9.3 334 11.7
2009-06-19 06:25:44 51°13.894 2°55.583 335.5 9.4 334 11.7
2009-06-19 06:25:49 51°13.906 2°55.574 335.7 9.6 335 11.8
2009-06-19 06:25:55 51°13.92 2°55.563 336.2 9.7 334 11.8
2009-06-19 06:25:59 51°13.93 2°55.556 336.5 9.8 335 11.8
2009-06-19 06:26:04 51°13.943 2°55.547 336.9 9.9 335 11.7
2009-06-19 06:26:09 51°13.955 2°55.537 336.8 10.1 335 11.7
2009-06-19 06:26:15 51°13.971 2°55.527 337 10.2 335 11.7
2009-06-19 06:26:19 51°13.981 2°55.519 337.3 10.3 336 11.6
2009-06-19 06:26:24 51°13.995 2°55.509 337.2 10.4 335 11.6
2009-06-19 06:26:29 51°14.008 2°55.5 336.7 10.5 336 11.4
2009-06-19 06:26:34 51°14.021 2°55.49 337.9 10.6 336 10.9
2009-06-19 06:26:39 51°14.035 2°55.481 338.8 10.7 337 11.3
2009-06-19 06:26:44 51°14.048 2°55.471 338.1 10.8 335 11.4
2009-06-19 06:26:48 51°14.059 2°55.463 338.5 10.9 338 11.4
2009-06-19 06:26:54 51°14.076 2°55.452 339.6 10.9 337 11.4
2009-06-19 06:26:59 51°14.091 2°55.443 339.7 11 337 11.4
2009-06-19 06:27:04 51°14.105 2°55.433 338.8 11 335 11.4
2009-06-19 06:27:09 51°14.118 2°55.423 338.1 11 336 11.4
2009-06-19 06:27:15 51°14.135 2°55.41 337.2 11.1 334 11.4
2009-06-19 06:27:19 51°14.146 2°55.401 336.1 11.1 333 11.4
2009-06-19 06:27:24 51°14.159 2°55.389 335.2 11 331 11.4
2009-06-19 06:27:29 51°14.172 2°55.377 332.7 11 328 11.4
2009-06-19 06:27:35 51°14.187 2°55.361 330.2 11 326 11.4
2009-06-19 06:27:39 51°14.197 2°55.349 328 11 323 11.3
2009-06-19 06:27:44 51°14.209 2°55.334 325.5 11.1 322 11.5
2009-06-19 06:27:48 51°14.219 2°55.322 324 11.1 320 11.4
2009-06-19 06:27:54 51°14.233 2°55.303 322.5 11.1 321 11.5
2009-06-19 06:27:59 51°14.245 2°55.288 323.1 11.1 321 11.4
2009-06-19 06:28:04 51°14.257 2°55.272 322.7 11 319 11.2
2009-06-19 06:28:09 51°14.268 2°55.256 321.1 11 318 11.7
2009-06-19 06:28:15 51°14.282 2°55.235 320 11 315 11.4
2009-06-19 06:28:19 51°14.29 2°55.221 317.8 11 315 11.4
2009-06-19 06:28:24 51°14.301 2°55.204 317.3 11 316 11.4
2009-06-19 06:28:29 51°14.312 2°55.187 317.7 11 315 11.4
2009-06-19 06:28:35 51°14.325 2°55.166 316.5 11 313 11.6
2009-06-19 06:28:40 51°14.336 2°55.149 315.3 11 315 11.3
2009-06-19 06:28:44 51°14.345 2°55.136 316 11 318 11.5
2009-06-19 06:28:49 51°14.357 2°55.121 318.8 10.9 323 11.4
2009-06-19 06:28:54 51°14.369 2°55.107 322.5 10.8 325 11.2
2009-06-19 06:28:59 51°14.381 2°55.094 323.9 10.8 324 11.6
2009-06-19 06:29:04 51°14.393 2°55.079 323.1 10.8 323 11.5
2009-06-19 06:29:08 51°14.403 2°55.068 322.3 10.9 324 11.5
2009-06-19 06:29:14 51°14.418 2°55.05 323.1 10.9 324 11.2
2009-06-19 06:29:19 51°14.43 2°55.036 323.4 10.9 322 11.6
2009-06-19 06:29:24 51°14.441 2°55.021 321.6 10.8 319 11.3
2009-06-19 06:29:29 51°14.453 2°55.005 319.1 10.9 321 11.6
2009-06-19 06:29:35 51°14.467 2°54.987 319.9 10.8 322 11.2
2009-06-19 06:29:39 51°14.476 2°54.975 322.1 10.9 323 11.5
2009-06-19 06:29:44 51°14.488 2°54.96 322.3 10.8 322 11.3
2009-06-19 06:29:49 51°14.5 2°54.945 320.7 10.8 320 11.2
2009-06-19 06:29:55 51°14.514 2°54.927 320 10.9 322 11.3
2009-06-19 06:29:59 51°14.524 2°54.916 321.8 10.8 325 11.2
2009-06-19 06:30:04 51°14.536 2°54.903 323.7 10.7 327 10.9
2009-06-19 06:30:08 51°14.547 2°54.893 326.5 10.8 329 11
2009-06-19 06:30:14 51°14.562 2°54.879 329.7 10.9 331 11
2009-06-19 06:30:19 51°14.576 2°54.868 331.1 10.9 331 10.9
2009-06-19 06:30:24 51°14.589 2°54.855 330.2 10.9 330 10.7
2009-06-19 06:30:29 51°14.602 2°54.844 329.6 10.9 330 11
2009-06-19 06:30:35 51°14.618 2°54.829 329.4 11 330 11
2009-06-19 06:30:39 51°14.628 2°54.819 328.8 10.8 328 10.5
2009-06-19 06:30:44 51°14.641 2°54.807 328.2 10.8 328 11.1
2009-06-19 06:30:49 51°14.653 2°54.793 326.3 10.7 323 10.8
2009-06-19 06:30:54 51°14.665 2°54.779 323.3 10.8 323 10.8
2009-06-19 06:30:59 51°14.676 2°54.763 320.6 10.8 317 10.9
2009-06-19 06:31:04 51°14.687 2°54.747 318.4 10.8 318 10.8
2009-06-19 06:31:08 51°14.695 2°54.733 315.1 10.7 310 10.9
2009-06-19 06:31:14 51°14.706 2°54.71 311.5 10.6 310 10.6
2009-06-19 06:31:19 51°14.715 2°54.691 308.4 10.5 304 10.6
2009-06-19 06:31:24 51°14.722 2°54.672 304.8 10.4 302 10.7
2009-06-19 06:31:29 51°14.73 2°54.652 302.1 10.4 299 11.1
2009-06-19 06:31:35 51°14.738 2°54.628 299.9 10.4 298 11
2009-06-19 06:31:39 51°14.743 2°54.611 297.6 10.5 294 10.8
2009-06-19 06:31:44 51°14.748 2°54.589 294.4 10.6 293 11.2
2009-06-19 06:31:49 51°14.754 2°54.568 293 10.6 290 10.9
2009-06-19 06:31:55 51°14.759 2°54.541 290.5 10.5 287 10.7
2009-06-19 06:31:59 51°14.763 2°54.523 288.3 10.5 286 10.8
2009-06-19 06:32:04 51°14.766 2°54.5 286.1 10.6 284 11
2009-06-19 06:32:09 51°14.77 2°54.478 285 10.7 284 11.3
2009-06-19 06:32:15 51°14.773 2°54.45 283.9 10.7 281 10.8
2009-06-19 06:32:19 51°14.776 2°54.432 282.6 10.6 282 10.8
2009-06-19 06:32:24 51°14.779 2°54.409 282 10.7 281 11.3
2009-06-19 06:32:28 51°14.781 2°54.39 281.5 10.8 280 11.3
2009-06-19 06:32:34 51°14.784 2°54.362 281 10.8 279 11
2009-06-19 06:32:39 51°14.786 2°54.339 280.2 10.7 279 11.1
2009-06-19 06:32:44 51°14.789 2°54.315 280.5 10.7 280 11.5
2009-06-19 06:32:49 51°14.792 2°54.292 282 10.8 280 11.6
2009-06-19 06:32:55 51°14.796 2°54.264 282.2 10.7 282 11
2009-06-19 06:32:59 51°14.798 2°54.246 282.7 10.7 282 11.3
2009-06-19 06:33:04 51°14.801 2°54.222 283.3 10.6 282 11.1
2009-06-19 06:33:09 51°14.805 2°54.2 283.8 10.7 284 11.3
2009-06-19 06:33:15 51°14.809 2°54.172 284.6 10.7 284 11.2
2009-06-19 06:33:20 51°14.812 2°54.149 284.8 10.8 284 11
2009-06-19 06:33:24 51°14.815 2°54.131 285.3 10.8 285 10.8
2009-06-19 06:33:29 51°14.819 2°54.108 285.8 10.8 284 10.8
2009-06-19 06:33:34 51°14.823 2°54.085 286.1 10.8 285 10.8
2009-06-19 06:33:39 51°14.827 2°54.061 286.1 10.9 285 10.6
2009-06-19 06:33:44 51°14.831 2°54.038 286.6 10.8 286 10.7
2009-06-19 06:33:48 51°14.834 2°54.02 287 10.8 286 10.7
2009-06-19 06:33:54 51°14.839 2°53.992 287.6 10.7 286 10.8
2009-06-19 06:33:59 51°14.843 2°53.969 287.4 10.7 286 10.7
2009-06-19 06:34:04 51°14.848 2°53.946 287.4 10.7 287 11.2
2009-06-19 06:34:09 51°14.852 2°53.924 287.9 10.8 287 10.8
2009-06-19 06:34:15 51°14.857 2°53.896 287.9 10.7 287 10.9
2009-06-19 06:34:19 51°14.86 2°53.878 287.5 10.8 286 10.9
2009-06-19 06:34:24 51°14.865 2°53.855 287.5 10.8 287 10.8
2009-06-19 06:34:29 51°14.869 2°53.832 287.9 10.8 288 10.9
2009-06-19 06:34:35 51°14.875 2°53.805 289 10.9 288 11.2
2009-06-19 06:34:39 51°14.878 2°53.787 288.7 10.9 287 10.8
2009-06-19 06:34:44 51°14.883 2°53.763 288.3 10.8 288 10.6
2009-06-19 06:34:50 51°14.888 2°53.737 288.2 10.6 288 11
2009-06-19 06:34:55 51°14.893 2°53.714 289 10.6 288 11.2
2009-06-19 06:34:59 51°14.897 2°53.697 289.2 10.6 289 10.9
2009-06-19 06:35:04 51°14.901 2°53.674 289.7 10.7 290 11
2009-06-19 06:35:09 51°14.906 2°53.652 290 10.7 289 10.9
2009-06-19 06:35:15 51°14.912 2°53.625 290.1 10.7 289 11
2009-06-19 06:35:19 51°14.916 2°53.608 289.5 10.7 288 11.1
2009-06-19 06:35:24 51°14.92 2°53.585 289 10.7 288 11.2
2009-06-19 06:35:29 51°14.925 2°53.562 288.3 10.8 287 11.3
2009-06-19 06:35:35 51°14.93 2°53.535 288.7 10.8 288 11
2009-06-19 06:35:40 51°14.935 2°53.513 289.1 10.7 289 10.9
2009-06-19 06:35:44 51°14.939 2°53.494 289.3 10.7 288 11
2009-06-19 06:35:49 51°14.943 2°53.472 289.7 10.7 289 11.1
2009-06-19 06:35:54 51°14.948 2°53.449 289.9 10.8 289 11.3
2009-06-19 06:35:59 51°14.953 2°53.427 290.2 10.7 290 11
2009-06-19 06:36:04 51°14.958 2°53.405 290.4 10.6 289 11.5
2009-06-19 06:36:08 51°14.962 2°53.387 290.3 10.5 289 11.1
2009-06-19 06:36:14 51°14.968 2°53.361 290.5 10.5 289 11.3
2009-06-19 06:36:19 51°14.973 2°53.339 290.4 10.6 290 11.3
2009-06-19 06:36:24 51°14.978 2°53.317 290.4 10.6 290 11.3
2009-06-19 06:36:29 51°14.983 2°53.295 290.8 10.5 290 11.3
2009-06-19 06:36:35 51°14.989 2°53.268 290.4 10.6 289 11.5
2009-06-19 06:36:39 51°14.992 2°53.25 289.7 10.6 289 11.1
2009-06-19 06:36:44 51°14.997 2°53.228 289.4 10.7 289 11
2009-06-19 06:36:49 51°15.002 2°53.206 289 10.8 289 11.2
2009-06-19 06:36:55 51°15.007 2°53.179 289 10.8 289 11.2
2009-06-19 06:36:59 51°15.011 2°53.16 289.4 10.8 289 11.1
2009-06-19 06:37:04 51°15.016 2°53.138 289.4 10.8 289 11.3
2009-06-19 06:37:09 51°15.021 2°53.115 289.7 10.8 290 11.4
2009-06-19 06:37:15 51°15.027 2°53.088 290.2 10.7 289 11.1
2009-06-19 06:37:19 51°15.031 2°53.071 289.9 10.8 289 11.6
2009-06-19 06:37:24 51°15.036 2°53.048 290.1 10.7 290 11.1
2009-06-19 06:37:28 51°15.04 2°53.03 290.5 10.7 290 11.2
2009-06-19 06:37:35 51°15.047 2°52.999 290.2 10.8 289 11.4
2009-06-19 06:37:39 51°15.051 2°52.981 289.6 10.8 289 11.6
2009-06-19 06:37:44 51°15.056 2°52.958 289.1 10.8 288 11.6
2009-06-19 06:37:49 51°15.061 2°52.936 289.5 10.8 289 11.5
2009-06-19 06:37:55 51°15.066 2°52.908 289.7 10.8 287 11.9
2009-06-19 06:38:00 51°15.071 2°52.886 289 10.8 288 11.7
2009-06-19 06:38:04 51°15.075 2°52.868 289.1 10.8 289 11.5
2009-06-19 06:38:09 51°15.08 2°52.845 289.8 10.7 289 12
2009-06-19 06:38:14 51°15.084 2°52.823 290 10.5 288 11.7
2009-06-19 06:38:19 51°15.089 2°52.801 289.5 10.7 289 11.9
2009-06-19 06:38:24 51°15.093 2°52.779 289.5 10.6 288 11.7
2009-06-19 06:38:28 51°15.097 2°52.761 289.1 10.7 287 12.3
2009-06-19 06:38:34 51°15.102 2°52.734 288.7 10.6 287 11.8
2009-06-19 06:38:39 51°15.107 2°52.712 288.9 10.7 289 12.1
2009-06-19 06:38:44 51°15.111 2°52.689 289.8 10.7 288 11.7
2009-06-19 06:38:49 51°15.116 2°52.667 289.7 10.7 289 11.9
2009-06-19 06:38:55 51°15.122 2°52.64 289.4 10.8 288 12.2
2009-06-19 06:38:59 51°15.125 2°52.622 289.5 10.7 289 11.7
2009-06-19 06:39:04 51°15.13 2°52.6 289.9 10.7 289 12.2
2009-06-19 06:39:09 51°15.135 2°52.577 289.8 10.7 289 12
2009-06-19 06:39:15 51°15.141 2°52.55 290.5 10.8 290 12
2009-06-19 06:39:19 51°15.145 2°52.532 290.4 10.8 289 12
2009-06-19 06:39:24 51°15.15 2°52.51 289.9 10.8 289 12.2
2009-06-19 06:39:29 51°15.154 2°52.487 289.3 10.8 288 12.2
2009-06-19 06:39:35 51°15.16 2°52.46 289.3 10.9 289 12.3
2009-06-19 06:39:39 51°15.164 2°52.441 290.1 10.8 290 11.9
2009-06-19 06:39:44 51°15.169 2°52.419 290.4 10.7 289 12.5
2009-06-19 06:39:48 51°15.173 2°52.401 290.4 10.7 289 12.6
2009-06-19 06:39:55 51°15.18 2°52.37 290.5 10.7 290 12.2
2009-06-19 06:40:00 51°15.185 2°52.348 291 10.7 290 12.4
2009-06-19 06:40:04 51°15.189 2°52.33 291.1 10.7 290 12.3
2009-06-19 06:40:09 51°15.194 2°52.308 290.5 10.8 289 12.5
2009-06-19 06:40:15 51°15.2 2°52.281 290.3 10.7 289 12
2009-06-19 06:40:19 51°15.204 2°52.263 290.4 10.7 290 12.5
2009-06-19 06:40:24 51°15.209 2°52.241 290.7 10.7 289 12.5
2009-06-19 06:40:29 51°15.213 2°52.218 290.3 10.7 288 12.7
2009-06-19 06:40:35 51°15.219 2°52.191 289.9 10.5 289 12.4
2009-06-19 06:40:39 51°15.223 2°52.173 290.3 10.6 289 12.8
2009-06-19 06:40:44 51°15.228 2°52.151 290.6 10.6 290 12.8
2009-06-19 06:40:49 51°15.233 2°52.129 290.6 10.7 290 12.5
2009-06-19 06:40:55 51°15.239 2°52.103 291.1 10.7 290 12.8
2009-06-19 06:40:59 51°15.243 2°52.085 291.1 10.8 289 12.6
2009-06-19 06:41:04 51°15.248 2°52.062 290.6 10.8 289 12.6
2009-06-19 06:41:09 51°15.252 2°52.04 290.2 10.9 289 13
2009-06-19 06:41:15 51°15.258 2°52.013 289.8 10.8 288 12.8
2009-06-19 06:41:19 51°15.262 2°51.995 289.7 10.8 289 12.9
2009-06-19 06:41:24 51°15.267 2°51.972 289.8 10.8 290 13.1
2009-06-19 06:41:28 51°15.271 2°51.954 290.4 10.8 290 12.8
2009-06-19 06:41:34 51°15.277 2°51.927 290.6 10.8 290 12.9
2009-06-19 06:41:39 51°15.282 2°51.905 290 10.8 290 12.8
2009-06-19 06:41:44 51°15.287 2°51.882 289.9 10.8 290 13
2009-06-19 06:41:49 51°15.292 2°51.86 290.4 10.8 290 13
2009-06-19 06:41:55 51°15.298 2°51.833 290.8 10.8 289 13.4
2009-06-19 06:41:59 51°15.303 2°51.815 290.6 10.6 290 12.9
2009-06-19 06:42:04 51°15.307 2°51.793 290.5 10.5 289 13.4
2009-06-19 06:42:09 51°15.312 2°51.771 290.5 10.7 290 13.5
2009-06-19 06:42:15 51°15.318 2°51.745 290.6 10.5 290 13.1
2009-06-19 06:42:19 51°15.323 2°51.728 291.3 10.7 290 13.8
2009-06-19 06:42:24 51°15.328 2°51.705 291.1 10.5 290 13.1
2009-06-19 06:42:28 51°15.331 2°51.688 290.2 10.6 289 13.6
2009-06-19 06:42:34 51°15.338 2°51.661 290.1 10.6 290 13.4
2009-06-19 06:42:39 51°15.342 2°51.639 289.7 10.7 289 13.8
2009-06-19 06:42:44 51°15.348 2°51.617 290.1 10.6 290 13.4
2009-06-19 06:42:49 51°15.352 2°51.594 290.1 10.7 289 13.5
2009-06-19 06:42:55 51°15.359 2°51.568 290.7 10.8 291 13.6
2009-06-19 06:42:59 51°15.363 2°51.55 291.1 10.6 289 13.4
2009-06-19 06:43:04 51°15.367 2°51.528 290.7 10.5 290 13.7
2009-06-19 06:43:09 51°15.372 2°51.506 290.4 10.6 289 13.9
2009-06-19 06:43:15 51°15.377 2°51.479 288.3 10.7 285 13.9
2009-06-19 06:43:19 51°15.381 2°51.461 287.7 10.7 287 13.9
2009-06-19 06:43:24 51°15.385 2°51.438 286.9 10.7 285 13.8
2009-06-19 06:43:29 51°15.389 2°51.415 286.1 10.6 285 14
2009-06-19 06:43:35 51°15.393 2°51.388 285.5 10.6 285 13.9
2009-06-19 06:43:39 51°15.396 2°51.37 285.6 10.7 284 14.3
2009-06-19 06:43:44 51°15.399 2°51.347 284.9 10.6 283 13.8
2009-06-19 06:43:48 51°15.402 2°51.329 284.3 10.6 283 14.1
2009-06-19 06:43:55 51°15.407 2°51.297 284.1 10.4 284 13.6
2009-06-19 06:43:59 51°15.409 2°51.279 284.1 10.4 282 14.5
2009-06-19 06:44:04 51°15.412 2°51.257 284 10.4 283 13.6
2009-06-19 06:44:09 51°15.415 2°51.235 283.2 10.2 281 14.3
2009-06-19 06:44:15 51°15.419 2°51.208 283.3 10.2 283 14.1
2009-06-19 06:44:19 51°15.421 2°51.191 283.6 10.3 283 14
2009-06-19 06:44:24 51°15.425 2°51.168 284.1 10.5 283 14.3
2009-06-19 06:44:29 51°15.428 2°51.146 284.3 10.5 283 14
2009-06-19 06:44:34 51°15.432 2°51.123 284.3 10.5 284 14.1
2009-06-19 06:44:39 51°15.435 2°51.101 284.5 10.5 283 14.4
2009-06-19 06:44:44 51°15.438 2°51.078 284.4 10.6 283 14.1
2009-06-19 06:44:48 51°15.441 2°51.06 284.1 10.5 283 14.1
2009-06-19 06:44:54 51°15.445 2°51.032 283.9 10.6 282 14.5
2009-06-19 06:44:59 51°15.448 2°51.009 283.8 10.5 282 14
2009-06-19 06:45:04 51°15.451 2°50.987 283.3 10.5 281 14.3
2009-06-19 06:45:09 51°15.454 2°50.964 282.4 10.6 282 14.1
2009-06-19 06:45:15 51°15.458 2°50.936 283.2 10.6 283 14.2
2009-06-19 06:45:19 51°15.46 2°50.918 283.6 10.7 282 14.3
2009-06-19 06:45:24 51°15.463 2°50.895 283.8 10.5 283 14
2009-06-19 06:45:29 51°15.466 2°50.872 283.6 10.5 282 14.4
2009-06-19 06:45:35 51°15.47 2°50.845 283.8 10.6 283 14.3
2009-06-19 06:45:39 51°15.473 2°50.827 284 10.5 282 14.1
2009-06-19 06:45:44 51°15.476 2°50.804 283.5 10.5 282 14
2009-06-19 06:45:48 51°15.478 2°50.786 283.2 10.6 282 14.4
2009-06-19 06:45:54 51°15.482 2°50.758 282.9 10.6 282 14.2
2009-06-19 06:45:59 51°15.485 2°50.735 283 10.6 282 14.2
2009-06-19 06:46:04 51°15.488 2°50.712 283 10.6 282 14.4
2009-06-19 06:46:09 51°15.491 2°50.69 282.6 10.6 282 14.3
2009-06-19 06:46:15 51°15.495 2°50.662 282.7 10.6 281 14.2
2009-06-19 06:46:19 51°15.497 2°50.643 282.7 10.6 282 14.4
2009-06-19 06:46:24 51°15.5 2°50.62 283 10.6 282 14.5
2009-06-19 06:46:29 51°15.503 2°50.597 283.2 10.7 283 14.4
2009-06-19 06:46:35 51°15.508 2°50.57 284.1 10.7 283 14.3
2009-06-19 06:46:40 51°15.511 2°50.547 284.5 10.7 284 14.7
2009-06-19 06:46:44 51°15.514 2°50.529 284.9 10.6 284 14.1
2009-06-19 06:46:49 51°15.518 2°50.506 285.2 10.6 285 14.3
2009-06-19 06:46:55 51°15.522 2°50.479 285.2 10.6 285 14.3
2009-06-19 06:46:59 51°15.525 2°50.461 285.3 10.6 284 14.4
2009-06-19 06:47:04 51°15.529 2°50.438 285 10.7 284 14.3
2009-06-19 06:47:08 51°15.531 2°50.42 284.8 10.7 284 14.3
2009-06-19 06:47:14 51°15.536 2°50.392 285 10.5 283 14.1
2009-06-19 06:47:20 51°15.539 2°50.365 284 10.6 283 14.6
2009-06-19 06:47:24 51°15.542 2°50.347 284.6 10.6 284 14.4
2009-06-19 06:47:29 51°15.546 2°50.324 284.6 10.6 283 14.3
2009-06-19 06:47:35 51°15.55 2°50.297 284 10.6 283 14.4
2009-06-19 06:47:39 51°15.552 2°50.278 283.7 10.6 283 14.2
2009-06-19 06:47:44 51°15.555 2°50.255 283.4 10.6 283 14.3
2009-06-19 06:47:49 51°15.559 2°50.232 283.3 10.5 282 13.9
2009-06-19 06:47:55 51°15.562 2°50.205 282.9 10.5 281 14.8
2009-06-19 06:47:59 51°15.564 2°50.187 282.4 10.4 282 14.5
2009-06-19 06:48:04 51°15.568 2°50.165 283.4 10.5 283 14.4
2009-06-19 06:48:08 51°15.57 2°50.147 283.8 10.3 282 14.3
2009-06-19 06:48:14 51°15.574 2°50.12 283.1 10.5 282 14.6
2009-06-19 06:48:19 51°15.577 2°50.097 283 10.5 282 14.4
2009-06-19 06:48:24 51°15.58 2°50.075 283.3 10.5 282 14.7
2009-06-19 06:48:29 51°15.583 2°50.052 283.6 10.6 283 14.6
2009-06-19 06:48:35 51°15.587 2°50.025 284.7 10.6 283 14.4
2009-06-19 06:48:39 51°15.59 2°50.006 283.9 10.6 283 14.5
2009-06-19 06:48:44 51°15.593 2°49.984 284 10.5 282 14.8
2009-06-19 06:48:49 51°15.596 2°49.961 283.5 10.5 282 14.3
2009-06-19 06:48:55 51°15.599 2°49.934 283.5 10.5 280 14.8
2009-06-19 06:49:00 51°15.603 2°49.911 283.1 10.4 283 14.6
2009-06-19 06:49:04 51°15.605 2°49.894 284 10.4 284 14.5
2009-06-19 06:49:09 51°15.608 2°49.871 284.5 10.5 283 14.7
2009-06-19 06:49:15 51°15.612 2°49.844 284.5 10.3 283 14.5
2009-06-19 06:49:19 51°15.614 2°49.826 283.6 10.5 282 14.9
2009-06-19 06:49:24 51°15.618 2°49.803 283.7 10.5 283 14.6
2009-06-19 06:49:28 51°15.62 2°49.785 284 10.5 283 14.4
2009-06-19 06:49:34 51°15.624 2°49.758 284.6 10.3 282 14.3
2009-06-19 06:49:40 51°15.628 2°49.731 283.5 10.4 282 14.5
2009-06-19 06:49:44 51°15.63 2°49.713 284.2 10.5 282 14.6
2009-06-19 06:49:49 51°15.633 2°49.691 284.3 10.4 283 14.1
2009-06-19 06:49:55 51°15.637 2°49.664 284.7 10.5 283 14.5
2009-06-19 06:49:59 51°15.64 2°49.646 284.6 10.5 283 14.2
2009-06-19 06:50:04 51°15.643 2°49.623 285.1 10.3 284 13.8
2009-06-19 06:50:09 51°15.647 2°49.602 285.2 10.3 284 14.4
2009-06-19 06:50:15 51°15.651 2°49.575 285.4 10.2 284 13.7
2009-06-19 06:50:19 51°15.654 2°49.558 285.3 10.3 283 14
2009-06-19 06:50:24 51°15.657 2°49.535 284.4 10.3 283 13.8
2009-06-19 06:50:29 51°15.66 2°49.513 284.1 10.4 284 13.6
2009-06-19 06:50:35 51°15.664 2°49.486 284 10.4 282 13.4
2009-06-19 06:50:39 51°15.666 2°49.468 283.8 10.4 282 13.5
2009-06-19 06:50:44 51°15.669 2°49.445 284 10.5 283 13.4
2009-06-19 06:50:49 51°15.672 2°49.423 284.5 10.3 282 12.9
2009-06-19 06:50:55 51°15.676 2°49.396 284.1 10.5 282 13.3
2009-06-19 06:50:59 51°15.678 2°49.378 284 10.5 282 12.8
2009-06-19 06:51:04 51°15.682 2°49.355 284.1 10.4 284 12.6
2009-06-19 06:51:09 51°15.685 2°49.333 284.9 10.5 284 12.8
2009-06-19 06:51:15 51°15.689 2°49.306 285.1 10.5 283 12.8
2009-06-19 06:51:19 51°15.692 2°49.287 284.8 10.5 283 12.6
2009-06-19 06:51:24 51°15.695 2°49.265 283.9 10.5 281 12.1
2009-06-19 06:51:28 51°15.698 2°49.247 284.4 10.3 283 12.2
2009-06-19 06:51:34 51°15.701 2°49.22 284.4 10.4 281 12.5
2009-06-19 06:51:40 51°15.705 2°49.193 284.3 10.4 283 12.5
2009-06-19 06:51:44 51°15.707 2°49.175 284.5 10.4 281 12
2009-06-19 06:51:49 51°15.71 2°49.153 283.7 10.4 282 12.2
2009-06-19 06:51:54 51°15.713 2°49.13 284 10.5 282 12.5
2009-06-19 06:51:59 51°15.716 2°49.107 284.2 10.3 281 12
2009-06-19 06:52:04 51°15.719 2°49.085 283.5 10.3 281 12.4
2009-06-19 06:52:09 51°15.722 2°49.063 283.8 10.3 282 12.2
2009-06-19 06:52:15 51°15.725 2°49.036 284.5 10.3 282 12.2
2009-06-19 06:52:19 51°15.728 2°49.018 283.7 10.5 282 12.3
2009-06-19 06:52:24 51°15.731 2°48.995 283.6 10.3 282 12
2009-06-19 06:52:29 51°15.734 2°48.973 283.2 10.4 283 12.3
2009-06-19 06:52:35 51°15.738 2°48.946 283.8 10.4 282 12
2009-06-19 06:52:39 51°15.74 2°48.928 283.8 10.4 282 12.4
2009-06-19 06:52:44 51°15.743 2°48.906 283.8 10.3 282 12.2
2009-06-19 06:52:50 51°15.746 2°48.879 283.4 10.4 281 12.8
2009-06-19 06:52:55 51°15.749 2°48.856 283.4 10.3 282 12.1
2009-06-19 06:52:59 51°15.752 2°48.839 283.8 10.3 283 12.5
2009-06-19 06:53:04 51°15.755 2°48.816 283.9 10.3 282 12.7
2009-06-19 06:53:09 51°15.758 2°48.794 283.9 10.4 281 12.7
2009-06-19 06:53:15 51°15.762 2°48.767 284.1 10.5 283 12.9
2009-06-19 06:53:20 51°15.765 2°48.744 284.3 10.3 282 12.4
2009-06-19 06:53:24 51°15.767 2°48.727 284.2 10.2 282 13.3
2009-06-19 06:53:29 51°15.77 2°48.705 283.7 10.1 281 12.8
2009-06-19 06:53:35 51°15.773 2°48.679 283.3 10.1 281 13.2
2009-06-19 06:53:39 51°15.775 2°48.661 283.6 10.2 282 13.3
2009-06-19 06:53:44 51°15.778 2°48.639 283.9 10.2 282 12.9
2009-06-19 06:53:48 51°15.781 2°48.621 284.2 10.3 283 13
2009-06-19 06:53:54 51°15.785 2°48.595 284.5 10.4 283 13.3
2009-06-19 06:54:00 51°15.789 2°48.568 283.9 10.3 283 12.9
2009-06-19 06:54:04 51°15.791 2°48.55 284.3 10.3 284 13.6
2009-06-19 06:54:09 51°15.794 2°48.528 284.5 10.4 282 13.9
2009-06-19 06:54:15 51°15.798 2°48.501 284.2 10.2 282 13.1
2009-06-19 06:54:19 51°15.801 2°48.484 284.1 10.2 283 13.7
2009-06-19 06:54:24 51°15.804 2°48.461 284.5 10.3 283 13.7
2009-06-19 06:54:29 51°15.807 2°48.439 285 10.3 284 13.7
2009-06-19 06:54:35 51°15.811 2°48.413 285 10.3 283 14.3
2009-06-19 06:54:39 51°15.814 2°48.395 284.7 10.4 284 14.3
2009-06-19 06:54:44 51°15.817 2°48.373 284.6 10.3 283 14.3
2009-06-19 06:54:49 51°15.821 2°48.35 285.1 10.4 284 14.3
2009-06-19 06:54:55 51°15.825 2°48.324 285.7 10.4 285 14.5
2009-06-19 06:54:59 51°15.828 2°48.306 285.6 10.4 284 14.5
2009-06-19 06:55:04 51°15.831 2°48.283 284.7 10.5 283 14.8
2009-06-19 06:55:09 51°15.835 2°48.26 284.4 10.5 284 14.8
2009-06-19 06:55:15 51°15.839 2°48.233 284.7 10.6 284 15.1
2009-06-19 06:55:19 51°15.842 2°48.215 285.5 10.6 284 15.4
2009-06-19 06:55:24 51°15.845 2°48.192 285 10.6 283 15.2
2009-06-19 06:55:29 51°15.849 2°48.17 284.6 10.5 284 15.4
2009-06-19 06:55:35 51°15.853 2°48.143 285.1 10.6 284 15.7
2009-06-19 06:55:39 51°15.856 2°48.125 284.4 10.6 283 15.8
2009-06-19 06:55:44 51°15.859 2°48.102 283.9 10.6 283 15.8
2009-06-19 06:55:48 51°15.861 2°48.083 283.9 10.7 283 15.9
2009-06-19 06:55:55 51°15.866 2°48.051 284 10.6 283 15.7
2009-06-19 06:55:59 51°15.869 2°48.033 283.5 10.6 282 16
2009-06-19 06:56:04 51°15.872 2°48.01 283.6 10.5 284 16
2009-06-19 06:56:09 51°15.876 2°47.988 284.6 10.6 284 16
2009-06-19 06:56:14 51°15.879 2°47.965 284.7 10.6 284 16.2
2009-06-19 06:56:20 51°15.884 2°47.938 285.3 10.5 284 16.1
2009-06-19 06:56:24 51°15.886 2°47.92 284.8 10.5 283 16.5
2009-06-19 06:56:29 51°15.89 2°47.898 285.2 10.5 285 16.7
2009-06-19 06:56:35 51°15.894 2°47.87 285.3 10.6 283 17
2009-06-19 06:56:39 51°15.897 2°47.852 284.5 10.5 283 16.9
2009-06-19 06:56:44 51°15.9 2°47.829 284.1 10.5 282 16.9
2009-06-19 06:56:49 51°15.903 2°47.807 283.6 10.5 281 17.3
2009-06-19 06:56:55 51°15.907 2°47.779 283.7 10.5 283 17
2009-06-19 06:56:59 51°15.909 2°47.762 284.2 10.4 284 17.2
2009-06-19 06:57:04 51°15.913 2°47.739 284.7 10.5 283 17.1
2009-06-19 06:57:10 51°15.917 2°47.712 284.5 10.3 283 16.9
2009-06-19 06:57:15 51°15.92 2°47.69 284.5 10.3 283 17.7
2009-06-19 06:57:19 51°15.922 2°47.673 284.1 10.3 283 18
2009-06-19 06:57:24 51°15.926 2°47.65 283.8 10.2 284 17.4
2009-06-19 06:57:29 51°15.929 2°47.628 283.8 10.3 283 17.6
2009-06-19 06:57:35 51°15.933 2°47.601 283.9 10.4 283 17.8
2009-06-19 06:57:39 51°15.935 2°47.583 283.3 10.4 283 17.7
2009-06-19 06:57:44 51°15.939 2°47.561 283.2 10.4 283 17.6
2009-06-19 06:57:49 51°15.942 2°47.539 283.5 10.3 282 17.9
2009-06-19 06:57:55 51°15.945 2°47.512 283.5 10.2 283 17.8
2009-06-19 06:58:00 51°15.949 2°47.49 283.4 10.3 283 17.6
2009-06-19 06:58:04 51°15.951 2°47.472 284.1 10.3 284 18.2
2009-06-19 06:58:09 51°15.955 2°47.45 284.4 10.2 283 17.6
2009-06-19 06:58:15 51°15.958 2°47.424 283.9 10.1 283 17.8
2009-06-19 06:58:20 51°15.961 2°47.402 283.6 10.1 283 17.7
2009-06-19 06:58:24 51°15.964 2°47.385 283.7 10.2 283 17.7
2009-06-19 06:58:29 51°15.968 2°47.363 283.4 10.3 284 18
2009-06-19 06:58:35 51°15.972 2°47.336 284.2 10.3 285 17.8
2009-06-19 06:58:40 51°15.976 2°47.314 284.7 10.3 285 17.9
2009-06-19 06:58:44 51°15.978 2°47.296 284.9 10.3 284 18.5
2009-06-19 06:58:49 51°15.982 2°47.274 284.7 10.4 284 18.2
2009-06-19 06:58:55 51°15.986 2°47.248 284.6 10.3 284 18.1
2009-06-19 06:58:59 51°15.989 2°47.23 284.9 10.3 285 18.2
2009-06-19 06:59:04 51°15.993 2°47.208 285.1 10.3 285 18.3
2009-06-19 06:59:09 51°15.996 2°47.186 284.7 10.4 284 18.1
2009-06-19 06:59:15 51°16.001 2°47.159 284.9 10.2 285 17.9
2009-06-19 06:59:19 51°16.004 2°47.142 284.7 10.3 284 18.2
2009-06-19 06:59:24 51°16.007 2°47.12 285.3 10.3 286 18.4
2009-06-19 06:59:29 51°16.011 2°47.098 285.5 10.3 285 17.9
2009-06-19 06:59:35 51°16.016 2°47.071 285.5 10.4 287 17.7
2009-06-19 06:59:39 51°16.019 2°47.054 286.5 10.4 287 17.6
2009-06-19 06:59:44 51°16.023 2°47.031 286.6 10.5 286 17.8
2009-06-19 06:59:49 51°16.028 2°47.009 287.1 10.5 288 17.3
2009-06-19 06:59:55 51°16.033 2°46.983 287.4 10.5 287 17.3
2009-06-19 07:00:00 51°16.038 2°46.96 287.7 10.6 289 17.2
2009-06-19 07:00:04 51°16.041 2°46.942 288.3 10.5 287 16.9
2009-06-19 07:00:09 51°16.046 2°46.921 288.3 10.5 288 17.1
2009-06-19 07:00:15 51°16.051 2°46.894 288 10.5 287 16.9
2009-06-19 07:00:19 51°16.054 2°46.876 287.9 10.6 287 17.1
2009-06-19 07:00:24 51°16.059 2°46.854 287.7 10.5 287 16.5
2009-06-19 07:00:28 51°16.062 2°46.836 287.3 10.5 287 16.7
2009-06-19 07:00:34 51°16.067 2°46.809 287.6 10.5 287 16.5
2009-06-19 07:00:40 51°16.073 2°46.783 287.5 10.6 288 16.2
2009-06-19 07:00:44 51°16.076 2°46.765 287.9 10.4 287 16.2
2009-06-19 07:00:49 51°16.08 2°46.743 287.6 10.5 287 16.3
2009-06-19 07:00:55 51°16.086 2°46.717 287.8 10.4 288 15.8
2009-06-19 07:01:00 51°16.09 2°46.695 288.1 10.5 288 16.3
2009-06-19 07:01:04 51°16.094 2°46.677 287.9 10.3 288 15.4
2009-06-19 07:01:09 51°16.098 2°46.656 287.7 10.2 287 15.5
2009-06-19 07:01:15 51°16.103 2°46.629 287 10.3 287 14.7
2009-06-19 07:01:19 51°16.107 2°46.612 287.2 10.2 288 14
2009-06-19 07:01:24 51°16.111 2°46.591 288 10.2 288 14.7
2009-06-19 07:01:28 51°16.114 2°46.574 287.5 10.1 285 14.9
2009-06-19 07:01:35 51°16.119 2°46.543 286.8 10.2 287 14.8
2009-06-19 07:01:39 51°16.122 2°46.526 286.8 10.2 286 14.6
2009-06-19 07:01:44 51°16.126 2°46.504 286.4 10.2 286 14.9
2009-06-19 07:01:49 51°16.13 2°46.482 286.6 10.2 285 14.4
2009-06-19 07:01:55 51°16.135 2°46.456 287.3 10.3 287 14.3
2009-06-19 07:01:59 51°16.138 2°46.439 287.5 10.3 286 14
2009-06-19 07:02:04 51°16.142 2°46.417 286.9 10.4 286 14
2009-06-19 07:02:09 51°16.146 2°46.395 286.9 10.4 285 14.3
2009-06-19 07:02:15 51°16.151 2°46.368 286.7 10.2 286 13.6
2009-06-19 07:02:19 51°16.154 2°46.351 287.2 10.2 285 13.2
2009-06-19 07:02:24 51°16.157 2°46.329 286.8 10.2 286 12.4
2009-06-19 07:02:29 51°16.162 2°46.307 287.7 10.2 287 12.7
2009-06-19 07:02:35 51°16.166 2°46.281 287.6 10 287 12.3
2009-06-19 07:02:40 51°16.17 2°46.26 287.5 10.1 287 13
2009-06-19 07:02:44 51°16.174 2°46.243 289.2 10.2 291 12.8
2009-06-19 07:02:49 51°16.179 2°46.222 290.7 10.2 289 12.8
2009-06-19 07:02:55 51°16.185 2°46.197 291.5 10.3 291 12.7
2009-06-19 07:03:00 51°16.19 2°46.175 292.8 10.3 291 12.8
2009-06-19 07:03:04 51°16.195 2°46.158 293.3 10.4 292 12.7
2009-06-19 07:03:09 51°16.2 2°46.137 294 10.4 294 12.4
2009-06-19 07:03:15 51°16.207 2°46.112 295 10.4 293 12.5
2009-06-19 07:03:19 51°16.212 2°46.095 295 10.4 294 12.1
2009-06-19 07:03:24 51°16.218 2°46.074 295.5 10.4 294 12.4
2009-06-19 07:03:29 51°16.224 2°46.053 295.4 10.5 295 12.3
2009-06-19 07:03:35 51°16.232 2°46.028 296 10.4 295 12
2009-06-19 07:03:39 51°16.237 2°46.012 296.5 10.4 295 12.2
2009-06-19 07:03:44 51°16.243 2°45.991 296.9 10.4 296 12.2
2009-06-19 07:03:49 51°16.249 2°45.97 297.4 10.5 296 12.3
2009-06-19 07:03:55 51°16.257 2°45.946 297.7 10.4 297 12.1
2009-06-19 07:03:59 51°16.262 2°45.929 297.8 10.4 296 12
2009-06-19 07:04:04 51°16.269 2°45.909 297.1 10.3 296 12.7
2009-06-19 07:04:09 51°16.275 2°45.888 297.7 10.3 297 12
2009-06-19 07:04:15 51°16.283 2°45.863 296.9 10.3 296 12.1
2009-06-19 07:04:20 51°16.289 2°45.843 296.5 10.4 296 11.9
2009-06-19 07:04:24 51°16.294 2°45.826 296.8 10.4 296 12.2
2009-06-19 07:04:29 51°16.301 2°45.805 296.9 10.4 296 11.9
2009-06-19 07:04:35 51°16.308 2°45.781 297 10.3 295 12.1
2009-06-19 07:04:39 51°16.313 2°45.764 296.5 10.4 296 12.1
2009-06-19 07:04:44 51°16.32 2°45.744 296.3 10.2 297 12.1
2009-06-19 07:04:49 51°16.326 2°45.724 297.1 10.3 299 12.5
2009-06-19 07:04:54 51°16.334 2°45.704 299.8 10.4 301 12.5
2009-06-19 07:04:59 51°16.341 2°45.684 300.9 10.5 301 12.4
2009-06-19 07:05:04 51°16.349 2°45.664 301.7 10.4 303 12.4
2009-06-19 07:05:09 51°16.357 2°45.645 303.2 10.5 304 12.5
2009-06-19 07:05:14 51°16.365 2°45.626 304.4 10.4 305 12.1
2009-06-19 07:05:20 51°16.376 2°45.603 304.9 10.5 306 12.6
2009-06-19 07:05:24 51°16.382 2°45.588 305.3 10.5 305 12.2
2009-06-19 07:05:29 51°16.391 2°45.569 305.4 10.6 306 12.5
2009-06-19 07:05:35 51°16.401 2°45.546 305.5 10.6 305 12.7
2009-06-19 07:05:40 51°16.41 2°45.528 305.1 10.4 306 12.4
2009-06-19 07:05:44 51°16.416 2°45.513 305.5 10.5 306 13.1
2009-06-19 07:05:49 51°16.425 2°45.494 305.7 10.6 305 13
2009-06-19 07:05:55 51°16.435 2°45.471 305.4 10.3 305 12.8
2009-06-19 07:05:59 51°16.442 2°45.456 305.5 10.3 306 13.1
2009-06-19 07:06:04 51°16.45 2°45.438 305.7 10.4 306 13.1
2009-06-19 07:06:10 51°16.46 2°45.415 306.1 10.5 307 12.8
2009-06-19 07:06:15 51°16.469 2°45.397 306.5 10.5 306 12.7
2009-06-19 07:06:19 51°16.476 2°45.382 307.1 10.5 308 12.8
2009-06-19 07:06:24 51°16.485 2°45.363 307.2 10.5 307 12.9
2009-06-19 07:06:30 51°16.495 2°45.341 306.8 10.5 306 13.4
2009-06-19 07:06:35 51°16.504 2°45.323 306.4 10.2 307 12.9
2009-06-19 07:06:40 51°16.512 2°45.306 306.8 10.2 309 13.9
2009-06-19 07:06:44 51°16.519 2°45.291 307.5 10.3 307 13.6
2009-06-19 07:06:49 51°16.528 2°45.273 306.9 10.4 307 13.7
2009-06-19 07:06:55 51°16.538 2°45.25 306.2 10.4 306 13.7
2009-06-19 07:07:00 51°16.547 2°45.232 306.4 10.5 307 14
2009-06-19 07:07:04 51°16.554 2°45.216 306.5 10.5 305 13.7
2009-06-19 07:07:09 51°16.562 2°45.198 306 10.5 306 14
2009-06-19 07:07:15 51°16.572 2°45.175 306.3 10.5 307 13.6
2009-06-19 07:07:19 51°16.579 2°45.161 306.5 10.3 307 13.7
2009-06-19 07:07:24 51°16.588 2°45.143 307.4 10.3 307 13
2009-06-19 07:07:28 51°16.595 2°45.128 306.9 10.3 306 12.3
2009-06-19 07:07:34 51°16.605 2°45.106 306.5 10.4 306 11.5
2009-06-19 07:07:40 51°16.615 2°45.084 306.6 10.2 306 11.7
2009-06-19 07:07:44 51°16.622 2°45.069 306.7 10.2 308 11.2
2009-06-19 07:07:49 51°16.63 2°45.051 307.1 10.1 306 11.5
2009-06-19 07:07:55 51°16.64 2°45.03 306.4 10.1 307 11.4
2009-06-19 07:07:59 51°16.647 2°45.015 306.4 10.1 306 11.1
2009-06-19 07:08:04 51°16.655 2°44.997 306.3 10.3 306 10.7
2009-06-19 07:08:09 51°16.663 2°44.979 305.9 10.4 306 11.5
2009-06-19 07:08:15 51°16.674 2°44.956 306.2 10.4 305 11.9
2009-06-19 07:08:19 51°16.68 2°44.941 305.8 10.4 306 12.2
2009-06-19 07:08:24 51°16.688 2°44.922 305.9 10.4 305 12.4
2009-06-19 07:08:29 51°16.697 2°44.903 305.7 10.3 305 12.1
2009-06-19 07:08:35 51°16.707 2°44.881 305.8 10.4 306 13
2009-06-19 07:08:39 51°16.713 2°44.866 306.1 10.5 306 13.1
2009-06-19 07:08:44 51°16.722 2°44.847 306 10.5 305 13.1
2009-06-19 07:08:49 51°16.73 2°44.828 306 10.5 306 13.6
2009-06-19 07:08:55 51°16.74 2°44.805 306.4 10.5 306 13.6
2009-06-19 07:09:00 51°16.749 2°44.787 306.4 10.5 305 14.7
2009-06-19 07:09:04 51°16.756 2°44.772 306.1 10.4 306 14.8
2009-06-19 07:09:09 51°16.764 2°44.753 305.6 10.4 305 14.7
2009-06-19 07:09:15 51°16.774 2°44.73 305 10.3 304 14.8
2009-06-19 07:09:19 51°16.781 2°44.715 305.4 10.4 305 15.1
2009-06-19 07:09:24 51°16.789 2°44.696 305.3 10.5 304 15.3
2009-06-19 07:09:29 51°16.797 2°44.677 305.2 10.5 305 15.4
2009-06-19 07:09:35 51°16.807 2°44.653 305.1 10.4 305 15.3
2009-06-19 07:09:40 51°16.815 2°44.635 306 10.3 307 15.1
2009-06-19 07:09:44 51°16.822 2°44.62 307.3 10.3 306 15.4
2009-06-19 07:09:49 51°16.831 2°44.602 307.3 10.4 307 16
2009-06-19 07:09:55 51°16.841 2°44.58 307.8 10.4 307 15.7
2009-06-19 07:10:00 51°16.85 2°44.561 308 10.5 307 16
2009-06-19 07:10:04 51°16.857 2°44.547 307.7 10.5 307 16.5
2009-06-19 07:10:09 51°16.866 2°44.528 307.6 10.5 306 16.4
2009-06-19 07:10:15 51°16.876 2°44.506 307.9 10.4 308 16.7
2009-06-19 07:10:19 51°16.884 2°44.492 308.8 10.5 307 16.8
2009-06-19 07:10:24 51°16.893 2°44.473 308.5 10.4 308 17
2009-06-19 07:10:29 51°16.902 2°44.455 308.8 10.3 308 16.8
2009-06-19 07:10:35 51°16.912 2°44.434 308.2 10.3 309 17.4
2009-06-19 07:10:39 51°16.92 2°44.42 309.3 10.4 309 17
2009-06-19 07:10:44 51°16.929 2°44.402 309.1 10.4 309 17.5
2009-06-19 07:10:50 51°16.94 2°44.38 309.2 10.5 309 17.4
2009-06-19 07:10:55 51°16.949 2°44.362 309.3 10.5 309 17.5
2009-06-19 07:10:59 51°16.956 2°44.347 309.2 10.6 308 17.8
2009-06-19 07:11:04 51°16.965 2°44.329 308.8 10.5 308 17.3
2009-06-19 07:11:09 51°16.974 2°44.311 308.9 10.6 309 17.8
2009-06-19 07:11:15 51°16.985 2°44.289 309.5 10.5 308 17.6
2009-06-19 07:11:19 51°16.993 2°44.274 309.1 10.6 308 18
2009-06-19 07:11:24 51°17.002 2°44.256 308.9 10.6 308 17.9
2009-06-19 07:11:29 51°17.011 2°44.237 309.2 10.7 309 17.7
2009-06-19 07:11:35 51°17.022 2°44.215 309.3 10.7 309 17.6
2009-06-19 07:11:40 51°17.031 2°44.196 309 10.6 308 17.8
2009-06-19 07:11:44 51°17.039 2°44.182 308.5 10.6 309 17
2009-06-19 07:11:49 51°17.048 2°44.164 308.3 10.4 309 17.1
2009-06-19 07:11:55 51°17.059 2°44.143 309.3 10.4 310 17.6
2009-06-19 07:12:00 51°17.068 2°44.124 308.9 10.5 308 17.3
2009-06-19 07:12:04 51°17.075 2°44.11 308.7 10.4 309 17
2009-06-19 07:12:09 51°17.084 2°44.092 308.3 10.5 310 17.3
2009-06-19 07:12:15 51°17.095 2°44.07 308.8 10.4 308 17.5
2009-06-19 07:12:20 51°17.104 2°44.052 308.7 10.6 309 17.5
2009-06-19 07:12:24 51°17.112 2°44.038 308.6 10.6 309 17.3
2009-06-19 07:12:29 51°17.121 2°44.02 308.6 10.7 310 17.5
2009-06-19 07:12:35 51°17.132 2°43.997 307.8 10.6 308 17.2
2009-06-19 07:12:39 51°17.14 2°43.983 307.9 10.7 310 17.6
2009-06-19 07:12:44 51°17.149 2°43.964 308.5 10.7 308 17.2
2009-06-19 07:12:48 51°17.156 2°43.949 307.8 10.6 309 17.2
2009-06-19 07:12:54 51°17.167 2°43.928 307.7 10.7 309 17.5
2009-06-19 07:12:59 51°17.177 2°43.91 307.9 10.5 310 17.2
2009-06-19 07:13:04 51°17.186 2°43.892 308.3 10.3 310 18.2
2009-06-19 07:13:09 51°17.195 2°43.875 308.1 10.2 309 16.9
2009-06-19 07:13:15 51°17.206 2°43.854 307.6 10.3 309 16.5
2009-06-19 07:13:19 51°17.213 2°43.839 307.5 10.4 310 16.6
2009-06-19 07:13:24 51°17.223 2°43.822 308.1 10.4 310 16.2
2009-06-19 07:13:29 51°17.232 2°43.805 308.6 10.4 311 16.4
2009-06-19 07:13:35 51°17.243 2°43.784 308.9 10.3 311 16.2
2009-06-19 07:13:39 51°17.251 2°43.771 309.4 10.4 313 16.9
2009-06-19 07:13:44 51°17.261 2°43.753 308.9 10.4 310 16.7
2009-06-19 07:13:49 51°17.27 2°43.736 308.6 10.5 311 16.8
2009-06-19 07:13:55 51°17.281 2°43.715 308.4 10.5 311 17.2
2009-06-19 07:14:00 51°17.291 2°43.697 308.9 10.5 311 16.9
2009-06-19 07:14:04 51°17.299 2°43.682 308.3 10.5 310 17.3
2009-06-19 07:14:09 51°17.308 2°43.664 308.2 10.6 310 17.1
2009-06-19 07:14:15 51°17.319 2°43.643 308.2 10.6 309 17.1
2009-06-19 07:14:19 51°17.327 2°43.628 307.7 10.5 309 16.8
2009-06-19 07:14:24 51°17.336 2°43.61 308.4 10.5 309 17.5
2009-06-19 07:14:28 51°17.343 2°43.596 308.1 10.4 309 16.7
2009-06-19 07:14:34 51°17.354 2°43.575 307.8 10.3 310 17.1
2009-06-19 07:14:40 51°17.365 2°43.553 308.1 10.4 309 17.4
2009-06-19 07:14:44 51°17.373 2°43.539 308 10.4 310 17.1
2009-06-19 07:14:49 51°17.382 2°43.522 308.4 10.4 311 16.9
2009-06-19 07:14:55 51°17.393 2°43.5 308.7 10.4 310 16.7
2009-06-19 07:14:59 51°17.4 2°43.486 308.5 10.4 309 16.2
2009-06-19 07:15:04 51°17.409 2°43.468 308 10.4 309 16.1
2009-06-19 07:15:09 51°17.418 2°43.45 308.3 10.4 309 15.6
2009-06-19 07:15:15 51°17.429 2°43.429 307.7 10.4 309 15.4
2009-06-19 07:15:19 51°17.436 2°43.414 307.2 10.4 309 14.7
2009-06-19 07:15:24 51°17.446 2°43.396 307.5 10.3 309 14.2
2009-06-19 07:15:29 51°17.455 2°43.379 308.5 10.4 309 13.8
2009-06-19 07:15:35 51°17.466 2°43.357 308.1 10.3 309 13.1
2009-06-19 07:15:39 51°17.473 2°43.344 308.2 10.3 310 13.3
2009-06-19 07:15:44 51°17.482 2°43.326 308.7 10.3 311 12.6
2009-06-19 07:15:49 51°17.492 2°43.309 309 10.2 311 13.8
2009-06-19 07:15:55 51°17.502 2°43.288 308.3 10.2 308 14.4
2009-06-19 07:16:00 51°17.511 2°43.27 307.4 10.3 309 14.5
2009-06-19 07:16:04 51°17.518 2°43.256 307.4 10.3 308 14.4
2009-06-19 07:16:09 51°17.527 2°43.239 307.7 10.3 310 13.8
2009-06-19 07:16:15 51°17.538 2°43.217 307.3 10.4 309 13.3
2009-06-19 07:16:19 51°17.546 2°43.203 307.6 10.3 309 12.4
2009-06-19 07:16:24 51°17.555 2°43.185 308.2 10.3 310 11.7
2009-06-19 07:16:29 51°17.564 2°43.168 308.2 10.3 309 13.3
2009-06-19 07:16:35 51°17.575 2°43.147 308.4 10.3 310 13.3
2009-06-19 07:16:40 51°17.584 2°43.129 308.3 10.3 310 13.1
2009-06-19 07:16:44 51°17.591 2°43.116 308.4 10.3 312 13.5
2009-06-19 07:16:49 51°17.601 2°43.099 308.9 9.8 312 12.5
2009-06-19 07:16:55 51°17.612 2°43.08 308.9 9.9 312 14
2009-06-19 07:17:00 51°17.62 2°43.063 308.6 9.6 311 12.9
2009-06-19 07:17:04 51°17.627 2°43.051 307.9 9.6 312 13.9
2009-06-19 07:17:09 51°17.636 2°43.035 308.4 9.7 311 13.9
2009-06-19 07:17:15 51°17.647 2°43.015 308.1 9.7 312 14.4
2009-06-19 07:17:19 51°17.654 2°43.003 308.9 9.9 313 15.5
2009-06-19 07:17:24 51°17.664 2°42.987 309.3 9.9 313 15.6
2009-06-19 07:17:29 51°17.673 2°42.97 309 10 310 16.4
2009-06-19 07:17:35 51°17.684 2°42.95 308.3 10.1 313 17.5
2009-06-19 07:17:39 51°17.691 2°42.937 308.7 10.1 312 19
2009-06-19 07:17:44 51°17.701 2°42.92 309.1 10.1 311 19.9
2009-06-19 07:17:49 51°17.71 2°42.903 308.5 10.2 311 21.3
2009-06-19 07:17:55 51°17.721 2°42.882 308.6 10.3 311 22
2009-06-19 07:18:00 51°17.731 2°42.865 308.9 10.4 311 22.1
2009-06-19 07:18:04 51°17.738 2°42.851 308.9 10.5 311 22.8
2009-06-19 07:18:09 51°17.748 2°42.833 308.9 10.5 312 23.1
2009-06-19 07:18:15 51°17.76 2°42.812 308.6 10.3 311 23.3
2009-06-19 07:18:20 51°17.769 2°42.795 308.6 10.4 312 23.1
2009-06-19 07:18:24 51°17.777 2°42.782 308.4 10.5 311 24
2009-06-19 07:18:29 51°17.786 2°42.764 307.9 10.2 310 23.4
2009-06-19 07:18:35 51°17.797 2°42.744 308.6 10.3 312 24.3
2009-06-19 07:18:39 51°17.805 2°42.729 308.9 10.4 309 24.3
2009-06-19 07:18:44 51°17.814 2°42.711 307.8 10.5 310 24.7
2009-06-19 07:18:48 51°17.822 2°42.697 308.3 10.4 311 24.7
2009-06-19 07:18:54 51°17.833 2°42.676 308.8 10.6 311 25.6
2009-06-19 07:19:00 51°17.845 2°42.655 309.2 10.5 311 24.7
2009-06-19 07:19:04 51°17.852 2°42.641 308.2 10.4 310 25.3
2009-06-19 07:19:09 51°17.861 2°42.623 308.6 10.6 310 25.7
2009-06-19 07:19:15 51°17.873 2°42.602 308.5 10.5 310 25.6
2009-06-19 07:19:20 51°17.882 2°42.584 308.2 10.6 311 25.8
2009-06-19 07:19:24 51°17.89 2°42.569 308.7 10.6 309 25.5
2009-06-19 07:19:30 51°17.901 2°42.548 308.3 10.7 310 25.7
2009-06-19 07:19:35 51°17.911 2°42.53 308.2 10.5 311 25.7
2009-06-19 07:19:39 51°17.918 2°42.516 308.4 10.6 310 26
2009-06-19 07:19:44 51°17.928 2°42.498 307.8 10.7 308 25.8
2009-06-19 07:19:49 51°17.937 2°42.479 307.8 10.7 309 25.7
2009-06-19 07:19:55 51°17.948 2°42.457 307.6 10.8 308 26
2009-06-19 07:19:59 51°17.956 2°42.442 307.9 10.8 309 25.5
2009-06-19 07:20:04 51°17.965 2°42.423 308 10.9 309 25.8
2009-06-19 07:20:10 51°17.976 2°42.4 307.6 10.9 308 25.9
2009-06-19 07:20:15 51°17.986 2°42.381 307.6 10.9 309 25.9
2009-06-19 07:20:19 51°17.993 2°42.366 307.8 10.9 309 26.6
2009-06-19 07:20:24 51°18.003 2°42.348 307.9 10.8 308 25.9
2009-06-19 07:20:29 51°18.012 2°42.33 307.8 10.5 310 26.7
2009-06-19 07:20:35 51°18.023 2°42.308 308 10.5 307 26.2
2009-06-19 07:20:40 51°18.032 2°42.29 307.1 10.5 309 26.2
2009-06-19 07:20:44 51°18.039 2°42.276 307.7 10.4 309 26.7
2009-06-19 07:20:49 51°18.048 2°42.257 307.8 10.3 308 26.1
2009-06-19 07:20:55 51°18.059 2°42.236 307.6 10.5 308 26.1
2009-06-19 07:21:00 51°18.068 2°42.218 307.9 10.5 309 26
2009-06-19 07:21:04 51°18.075 2°42.203 307.9 10.6 308 25.9
2009-06-19 07:21:09 51°18.084 2°42.185 307.9 10.7 309 26.1
2009-06-19 07:21:15 51°18.095 2°42.162 308 10.7 307 26
2009-06-19 07:21:20 51°18.104 2°42.143 307.6 10.7 307 26
2009-06-19 07:21:24 51°18.111 2°42.128 307.1 10.7 308 26.2
2009-06-19 07:21:29 51°18.12 2°42.11 307.3 10.6 308 25.7
2009-06-19 07:21:35 51°18.132 2°42.087 307.8 10.7 308 26.2
2009-06-19 07:21:39 51°18.139 2°42.073 308.1 10.7 309 25.5
2009-06-19 07:21:44 51°18.149 2°42.054 308.7 10.7 309 25.8
2009-06-19 07:21:49 51°18.158 2°42.036 308.6 10.8 308 25.8
2009-06-19 07:21:55 51°18.169 2°42.013 308.5 10.8 309 25.6
2009-06-19 07:21:59 51°18.176 2°41.998 308.6 10.8 309 25.8
2009-06-19 07:22:04 51°18.186 2°41.98 308.9 10.8 310 25.9
2009-06-19 07:22:09 51°18.195 2°41.962 309.1 10.7 310 25.1
2009-06-19 07:22:15 51°18.207 2°41.94 309.3 10.6 310 25.1
2009-06-19 07:22:19 51°18.214 2°41.925 308.9 10.5 308 25.6
2009-06-19 07:22:24 51°18.223 2°41.907 308.6 10.6 309 25.4
2009-06-19 07:22:29 51°18.232 2°41.889 308.3 10.6 309 25.4
2009-06-19 07:22:35 51°18.244 2°41.868 308.5 10.5 310 25.4
2009-06-19 07:22:40 51°18.253 2°41.85 308.6 10.5 309 25.3
2009-06-19 07:22:44 51°18.26 2°41.835 308.4 10.5 310 25.3
2009-06-19 07:22:49 51°18.27 2°41.818 308.7 10.4 311 25.3
2009-06-19 07:22:55 51°18.28 2°41.796 309.2 10.4 308 25.1
2009-06-19 07:23:00 51°18.29 2°41.778 308.4 10.5 309 25.2
2009-06-19 07:23:04 51°18.297 2°41.764 308.7 10.6 310 25.3
2009-06-19 07:23:09 51°18.306 2°41.745 308.5 10.6 308 25
2009-06-19 07:23:15 51°18.317 2°41.724 308 10.2 310 25.5
2009-06-19 07:23:20 51°18.326 2°41.707 308.5 10.2 309 25.1
2009-06-19 07:23:24 51°18.333 2°41.693 308.4 10 309 24.4
2009-06-19 07:23:29 51°18.342 2°41.676 308.3 10.2 310 25.1
2009-06-19 07:23:35 51°18.353 2°41.654 308.4 10.3 309 25.1
2009-06-19 07:23:39 51°18.36 2°41.64 308.1 10.4 308 24.6
2009-06-19 07:23:44 51°18.369 2°41.622 308 10.4 309 24.4
2009-06-19 07:23:49 51°18.378 2°41.604 308.6 10.6 309 24.6
2009-06-19 07:23:55 51°18.39 2°41.582 308.6 10.6 310 22.8
2009-06-19 07:24:00 51°18.399 2°41.565 309.2 10.5 310 22.4
2009-06-19 07:24:04 51°18.406 2°41.55 308.6 10.3 310 22.1
2009-06-19 07:24:09 51°18.416 2°41.533 308.5 10.3 310 23.2
2009-06-19 07:24:15 51°18.427 2°41.513 308.6 10.3 310 22.9
2009-06-19 07:24:19 51°18.434 2°41.499 308.6 10.3 310 23.4
2009-06-19 07:24:24 51°18.443 2°41.481 308.5 10.3 309 23.9
2009-06-19 07:24:29 51°18.453 2°41.463 308.1 10.3 310 23.2
2009-06-19 07:24:35 51°18.464 2°41.442 308.3 10.4 310 23.5
2009-06-19 07:24:39 51°18.471 2°41.428 309.2 10.5 309 22.9
2009-06-19 07:24:44 51°18.48 2°41.41 307.9 10.5 309 22.1
2009-06-19 07:24:49 51°18.49 2°41.392 308.5 10.5 310 21.6
2009-06-19 07:24:55 51°18.501 2°41.37 308.6 10.3 311 19.5
2009-06-19 07:25:00 51°18.51 2°41.353 308.6 10.3 311 20.7
2009-06-19 07:25:04 51°18.518 2°41.339 309.3 10.5 311 21.5
2009-06-19 07:25:09 51°18.527 2°41.321 309.1 10.4 310 21.6
2009-06-19 07:25:15 51°18.538 2°41.301 308.6 10.4 310 22.5
2009-06-19 07:25:20 51°18.548 2°41.283 308.4 10.4 309 22.2
2009-06-19 07:25:24 51°18.555 2°41.269 308.2 10.3 310 22
2009-06-19 07:25:29 51°18.564 2°41.251 308 10.5 308 22.2
2009-06-19 07:25:34 51°18.573 2°41.232 307.8 10.5 309 21.5
2009-06-19 07:25:40 51°18.584 2°41.211 307.9 10.6 309 20.6
2009-06-19 07:25:44 51°18.592 2°41.197 308.4 10.7 311 20.2
2009-06-19 07:25:49 51°18.602 2°41.179 308.8 10.6 311 20.5
2009-06-19 07:25:55 51°18.613 2°41.157 309.1 10.6 311 20.1
2009-06-19 07:26:00 51°18.623 2°41.139 308.7 10.7 310 21.1
2009-06-19 07:26:04 51°18.63 2°41.125 308.3 10.6 309 21
2009-06-19 07:26:09 51°18.639 2°41.107 308 10.6 311 20.5
2009-06-19 07:26:15 51°18.651 2°41.085 308.6 10.6 309 19.9
2009-06-19 07:26:20 51°18.66 2°41.067 307.8 10.6 310 19.2
2009-06-19 07:26:24 51°18.667 2°41.053 307.8 10.5 310 18
2009-06-19 07:26:29 51°18.677 2°41.035 308 10.3 310 16
2009-06-19 07:26:35 51°18.688 2°41.015 307.9 10.3 311 14.2
2009-06-19 07:26:39 51°18.695 2°41.001 308.1 10.3 310 17.6
2009-06-19 07:26:44 51°18.704 2°40.983 308 10.3 311 17.7
2009-06-19 07:26:49 51°18.714 2°40.966 307.9 10.4 310 14.5
2009-06-19 07:26:55 51°18.725 2°40.945 308.3 10.4 311 17.4
2009-06-19 07:26:59 51°18.732 2°40.931 308.6 10.4 311 19.6
2009-06-19 07:27:04 51°18.742 2°40.913 308 10.4 310 21.1
2009-06-19 07:27:10 51°18.753 2°40.892 307.8 10.5 311 22
2009-06-19 07:27:15 51°18.762 2°40.874 307.8 10.5 310 21.4
2009-06-19 07:27:19 51°18.77 2°40.86 308.2 10.6 311 19.6
2009-06-19 07:27:24 51°18.78 2°40.842 307.9 10.4 310 16.4
2009-06-19 07:27:28 51°18.787 2°40.829 308.6 10.5 313 18
2009-06-19 07:27:35 51°18.801 2°40.805 309.1 10.5 313 19
2009-06-19 07:27:40 51°18.81 2°40.787 308.7 10.5 310 19.4
2009-06-19 07:27:44 51°18.818 2°40.773 308.2 10.6 311 19.5
2009-06-19 07:27:49 51°18.828 2°40.755 308 10.5 311 19.6
2009-06-19 07:27:55 51°18.839 2°40.734 308 10.5 312 19.8
2009-06-19 07:27:59 51°18.847 2°40.72 308.9 10.6 312 19.8
2009-06-19 07:28:04 51°18.857 2°40.702 308.7 10.4 310 19.2
2009-06-19 07:28:08 51°18.864 2°40.688 307.9 10.5 310 19.4
2009-06-19 07:28:14 51°18.875 2°40.667 307.2 10.5 310 19
2009-06-19 07:28:20 51°18.887 2°40.645 307.4 10.6 310 18.2
2009-06-19 07:28:24 51°18.894 2°40.631 307.7 10.5 310 19.5
2009-06-19 07:28:29 51°18.903 2°40.613 307 10.6 310 20
2009-06-19 07:28:35 51°18.915 2°40.592 307.1 10.6 310 19.9
2009-06-19 07:28:40 51°18.924 2°40.574 307.4 10.6 311 19.8
2009-06-19 07:28:44 51°18.933 2°40.56 308 10.5 312 18.4
2009-06-19 07:28:49 51°18.942 2°40.543 308.6 10.6 313 17.5
2009-06-19 07:28:55 51°18.954 2°40.523 309.3 10.4 314 17.8
2009-06-19 07:28:59 51°18.962 2°40.51 309.2 10.3 314 18.2
2009-06-19 07:29:04 51°18.972 2°40.493 309 10.3 312 19.3
2009-06-19 07:29:10 51°18.983 2°40.472 308.1 10.4 311 19.8
2009-06-19 07:29:15 51°18.993 2°40.455 308.1 10.5 312 20.4
2009-06-19 07:29:19 51°19 2°40.441 308.5 10.5 311 21.2
2009-06-19 07:29:24 51°19.01 2°40.424 308.3 10.6 311 21.1
2009-06-19 07:29:30 51°19.021 2°40.402 308.2 10.5 310 20.3
2009-06-19 07:29:35 51°19.031 2°40.385 308.6 10.5 312 21.2
2009-06-19 07:29:39 51°19.039 2°40.371 308.7 10.5 311 21.9
2009-06-19 07:29:44 51°19.049 2°40.354 308.6 10.7 312 21.9
2009-06-19 07:29:48 51°19.056 2°40.339 308.1 10.5 310 22.2
2009-06-19 07:29:55 51°19.069 2°40.314 308.5 10.6 311 22
2009-06-19 07:30:00 51°19.079 2°40.296 308.5 10.6 310 22
2009-06-19 07:30:04 51°19.087 2°40.282 307.9 10.7 311 21.8
2009-06-19 07:30:09 51°19.096 2°40.264 308.8 10.6 311 22.1
2009-06-19 07:30:15 51°19.108 2°40.243 308.5 10.6 311 22.2
2009-06-19 07:30:20 51°19.117 2°40.225 308.6 10.6 310 22
2009-06-19 07:30:24 51°19.125 2°40.211 308.8 10.5 311 23
2009-06-19 07:30:29 51°19.134 2°40.193 308.6 10.6 310 23.4
2009-06-19 07:30:34 51°19.144 2°40.176 308.6 10.6 312 23.5
2009-06-19 07:30:40 51°19.155 2°40.154 309.1 10.5 310 23.3
2009-06-19 07:30:44 51°19.163 2°40.14 308.6 10.6 310 24
2009-06-19 07:30:49 51°19.173 2°40.122 308.7 10.6 311 24
2009-06-19 07:30:55 51°19.184 2°40.101 309.3 10.7 311 24.1
2009-06-19 07:30:59 51°19.192 2°40.087 309 10.7 310 24
2009-06-19 07:31:04 51°19.202 2°40.068 308.2 10.6 309 24.4
2009-06-19 07:31:08 51°19.209 2°40.054 308.4 10.6 311 24.8
2009-06-19 07:31:14 51°19.221 2°40.032 308.3 10.6 310 25
2009-06-19 07:31:19 51°19.23 2°40.015 308.1 10.7 311 25.5
2009-06-19 07:31:24 51°19.24 2°39.996 308.4 10.7 310 25.3
2009-06-19 07:31:30 51°19.251 2°39.975 308.7 10.6 310 25.1
2009-06-19 07:31:35 51°19.261 2°39.957 307.8 10.7 310 25.8
2009-06-19 07:31:39 51°19.269 2°39.942 308.1 10.8 310 26
2009-06-19 07:31:44 51°19.278 2°39.924 308.2 10.7 310 26.2
2009-06-19 07:31:49 51°19.287 2°39.906 308.4 10.7 310 26.5
2009-06-19 07:31:55 51°19.299 2°39.884 308.3 10.7 311 27.4
2009-06-19 07:31:59 51°19.307 2°39.87 308.5 10.7 312 27.3
2009-06-19 07:32:04 51°19.317 2°39.852 308.8 10.8 311 27.6
2009-06-19 07:32:08 51°19.324 2°39.837 308 10.8 309 27.8
2009-06-19 07:32:15 51°19.338 2°39.812 307.7 10.7 310 27.7
2009-06-19 07:32:19 51°19.345 2°39.797 308.3 10.7 310 28.8
2009-06-19 07:32:24 51°19.355 2°39.779 308.1 10.7 310 28.6
2009-06-19 07:32:29 51°19.365 2°39.761 308.2 10.8 310 29.1
2009-06-19 07:32:35 51°19.376 2°39.738 307.9 10.8 309 29.7
2009-06-19 07:32:40 51°19.386 2°39.72 308.4 10.8 310 29.4
2009-06-19 07:32:44 51°19.393 2°39.705 308.1 10.8 310 30.3
2009-06-19 07:32:49 51°19.403 2°39.687 308.1 10.7 310 30
2009-06-19 07:32:54 51°19.413 2°39.669 308.6 10.8 311 31
2009-06-19 07:33:00 51°19.424 2°39.647 308.7 10.6 310 30.3
2009-06-19 07:33:04 51°19.432 2°39.633 309.1 10.7 310 31
2009-06-19 07:33:10 51°19.443 2°39.611 308.5 10.7 310 31.1
2009-06-19 07:33:15 51°19.453 2°39.593 307.8 10.8 310 30.7
2009-06-19 07:33:19 51°19.461 2°39.579 308.8 10.8 312 31
2009-06-19 07:33:24 51°19.471 2°39.561 308.8 10.8 310 31.7
2009-06-19 07:33:29 51°19.48 2°39.542 308.3 10.8 310 31.7
2009-06-19 07:33:35 51°19.492 2°39.52 308.1 10.8 310 32.1
2009-06-19 07:33:39 51°19.5 2°39.506 308.6 10.8 310 31.6
2009-06-19 07:33:45 51°19.511 2°39.483 308 10.8 310 31.7
2009-06-19 07:33:49 51°19.519 2°39.469 308 10.9 310 31.7
2009-06-19 07:33:55 51°19.53 2°39.447 307.9 10.8 310 31.6
2009-06-19 07:34:00 51°19.54 2°39.429 308.2 10.8 310 31.6
2009-06-19 07:34:04 51°19.548 2°39.414 307.9 10.8 310 30.9
2009-06-19 07:34:09 51°19.557 2°39.396 308.4 10.7 309 31.3
2009-06-19 07:34:15 51°19.568 2°39.374 308.2 10.6 308 31
2009-06-19 07:34:20 51°19.578 2°39.356 307.1 10.6 310 31.5
2009-06-19 07:34:24 51°19.586 2°39.342 308.2 10.6 310 31.6
2009-06-19 07:34:29 51°19.595 2°39.323 307.8 10.7 309 31.2
2009-06-19 07:34:35 51°19.607 2°39.301 308.2 10.8 310 31.3
2009-06-19 07:34:40 51°19.616 2°39.282 308.2 10.8 309 31.3
2009-06-19 07:34:44 51°19.624 2°39.267 308.3 10.8 310 30.8
2009-06-19 07:34:49 51°19.633 2°39.249 308.2 10.8 309 31.2
2009-06-19 07:34:55 51°19.645 2°39.226 307.9 10.9 308 31
2009-06-19 07:34:59 51°19.652 2°39.212 307.2 10.5 310 29.9
2009-06-19 07:35:04 51°19.662 2°39.195 307.9 10.6 310 30.4
2009-06-19 07:35:09 51°19.671 2°39.177 308.1 10.5 309 30
2009-06-19 07:35:15 51°19.682 2°39.155 307.6 10.5 310 29.7
2009-06-19 07:35:20 51°19.692 2°39.137 308.2 10.6 310 29.9
2009-06-19 07:35:24 51°19.699 2°39.123 308.6 10.6 309 29.2
2009-06-19 07:35:29 51°19.708 2°39.105 308.2 10.6 310 28.8
2009-06-19 07:35:35 51°19.72 2°39.083 308.1 10.6 309 28.6
2009-06-19 07:35:39 51°19.727 2°39.068 307.8 10.7 309 28.8
2009-06-19 07:35:45 51°19.739 2°39.045 307.7 10.7 309 28.7
2009-06-19 07:35:49 51°19.746 2°39.031 307.6 10.7 309 28.5
2009-06-19 07:35:55 51°19.757 2°39.009 307.7 10.8 310 28.7
2009-06-19 07:36:00 51°19.767 2°38.991 308.5 10.7 311 28.3
2009-06-19 07:36:04 51°19.775 2°38.976 308.4 10.7 309 27.7
2009-06-19 07:36:09 51°19.784 2°38.957 307.7 10.7 309 27.8
2009-06-19 07:36:15 51°19.795 2°38.935 307.4 10.8 308 27.8
2009-06-19 07:36:19 51°19.803 2°38.92 307.7 10.7 309 27.4
2009-06-19 07:36:24 51°19.812 2°38.902 308 10.8 309 27.1
2009-06-19 07:36:30 51°19.824 2°38.88 308.5 10.7 310 27.1
2009-06-19 07:36:35 51°19.833 2°38.862 308.5 10.8 311 27
2009-06-19 07:36:40 51°19.843 2°38.844 308.8 10.5 311 26.2
2009-06-19 07:36:44 51°19.851 2°38.831 309.7 10.5 311 26.3
2009-06-19 07:36:49 51°19.86 2°38.813 309.2 10.6 310 26.4
2009-06-19 07:36:55 51°19.872 2°38.791 308.5 10.7 310 26
2009-06-19 07:37:00 51°19.882 2°38.773 308.6 10.8 310 26.4
2009-06-19 07:37:04 51°19.89 2°38.758 309 10.8 310 26
2009-06-19 07:37:09 51°19.899 2°38.741 309 10.8 311 26.2
2009-06-19 07:37:15 51°19.911 2°38.718 308.7 10.9 310 26.1
2009-06-19 07:37:19 51°19.919 2°38.704 309 10.9 310 26.1
2009-06-19 07:37:24 51°19.928 2°38.685 308.7 10.9 310 26.1
2009-06-19 07:37:28 51°19.936 2°38.67 308.7 10.8 310 26
2009-06-19 07:37:35 51°19.95 2°38.645 308.6 10.9 311 26.2
2009-06-19 07:37:40 51°19.959 2°38.626 309.1 10.8 310 25.8
2009-06-19 07:37:44 51°19.967 2°38.612 308.3 10.7 309 26.1
2009-06-19 07:37:49 51°19.976 2°38.593 308.1 10.7 310 25.7
2009-06-19 07:37:55 51°19.987 2°38.571 308.3 10.7 309 26.1
2009-06-19 07:37:59 51°19.995 2°38.556 307.8 10.4 309 25
2009-06-19 07:38:04 51°20.004 2°38.539 307.9 10.5 309 24.9
2009-06-19 07:38:09 51°20.013 2°38.521 307.9 10.4 310 25.1
2009-06-19 07:38:15 51°20.025 2°38.5 308.9 10.6 310 25.7
2009-06-19 07:38:19 51°20.031 2°38.485 308.2 10.6 307 25.7
2009-06-19 07:38:24 51°20.041 2°38.467 307.8 10.5 310 25.3
2009-06-19 07:38:29 51°20.05 2°38.449 308.2 10.6 308 25.8
2009-06-19 07:38:35 51°20.061 2°38.427 307.8 10.6 309 25.4
2009-06-19 07:38:40 51°20.07 2°38.409 307.6 10.6 308 25.9
2009-06-19 07:38:44 51°20.078 2°38.394 307.8 10.6 310 25.7
2009-06-19 07:38:49 51°20.087 2°38.377 308.1 10.5 310 25.6
2009-06-19 07:38:55 51°20.098 2°38.355 308.5 10.5 310 26.2
2009-06-19 07:39:00 51°20.108 2°38.338 308.6 10.4 310 26.2
2009-06-19 07:39:04 51°20.115 2°38.324 308.8 10.1 309 25.2
2009-06-19 07:39:09 51°20.124 2°38.306 308 10.3 309 26.1
2009-06-19 07:39:15 51°20.135 2°38.286 308.7 10.3 311 25.1
2009-06-19 07:39:19 51°20.143 2°38.272 309.1 10.3 310 24.8
2009-06-19 07:39:24 51°20.151 2°38.253 307.7 10.3 309 25.4
2009-06-19 07:39:29 51°20.161 2°38.236 307.9 10.3 310 24.9
2009-06-19 07:39:35 51°20.172 2°38.214 308.1 10.5 309 25.1
2009-06-19 07:39:40 51°20.181 2°38.197 307.8 10.4 310 24.9
2009-06-19 07:39:44 51°20.188 2°38.182 308.4 10.5 308 25
2009-06-19 07:39:49 51°20.197 2°38.164 307.9 10.5 310 25.1
2009-06-19 07:39:55 51°20.209 2°38.142 308.2 10.5 310 25.3
2009-06-19 07:40:00 51°20.218 2°38.124 308.5 10.5 309 24.8
2009-06-19 07:40:05 51°20.227 2°38.106 308 10.6 308 25.7
2009-06-19 07:40:09 51°20.234 2°38.092 307.8 10.6 309 25.3
2009-06-19 07:40:15 51°20.246 2°38.07 308.5 10.6 310 25
2009-06-19 07:40:20 51°20.255 2°38.051 308.6 10.7 308 25.3
2009-06-19 07:40:24 51°20.262 2°38.037 308.9 10.5 310 24.3
2009-06-19 07:40:29 51°20.271 2°38.019 308.6 10.6 310 25
2009-06-19 07:40:35 51°20.283 2°37.998 308.8 10.4 310 23.9
2009-06-19 07:40:39 51°20.29 2°37.984 308.5 10.4 310 24.6
2009-06-19 07:40:44 51°20.299 2°37.966 308.7 10.5 309 24.7
2009-06-19 07:40:50 51°20.31 2°37.944 308.2 10.5 310 24.4
2009-06-19 07:40:55 51°20.32 2°37.926 308.3 10.5 309 24.3
2009-06-19 07:40:59 51°20.327 2°37.912 308.3 10.5 310 23.2
2009-06-19 07:41:04 51°20.337 2°37.894 308.5 10.4 310 23.7
2009-06-19 07:41:09 51°20.346 2°37.877 308.4 10.4 310 23.7
2009-06-19 07:41:15 51°20.357 2°37.856 308.6 10.3 311 24.4
2009-06-19 07:41:20 51°20.366 2°37.839 308.9 10.2 311 23.8
2009-06-19 07:41:24 51°20.374 2°37.826 308.7 10.1 312 -999
2009-06-19 07:41:30 51°20.385 2°37.806 309.2 10.2 310 24.1
2009-06-19 07:41:35 51°20.394 2°37.789 308.4 10.4 311 23
2009-06-19 07:41:40 51°20.404 2°37.771 308 10.4 310 24.5
2009-06-19 07:41:44 51°20.411 2°37.757 308.6 10.4 310 23.4
2009-06-19 07:41:49 51°20.42 2°37.74 308.1 10.1 310 22.9
2009-06-19 07:41:55 51°20.431 2°37.72 309 10.2 310 24.4
2009-06-19 07:41:59 51°20.438 2°37.705 308.2 10.3 308 24.7
2009-06-19 07:42:04 51°20.447 2°37.688 308 10.5 309 25.4
2009-06-19 07:42:09 51°20.457 2°37.67 308.4 10.5 309 25.4
2009-06-19 07:42:15 51°20.468 2°37.648 308 10.4 309 24.9
2009-06-19 07:42:19 51°20.475 2°37.634 308.3 10.4 311 25.6
2009-06-19 07:42:25 51°20.486 2°37.613 308.4 10.3 310 24.9